CFG6931 EDDH-EDDS
Flight info
| Callsign | CFG6931 |
|---|---|
| Flight time | 0h 53m |
| Altitude | 35000 |
| Route | IDEKO7G IDEKO N850 NIE DCT BERXO DCT SILWE DCT OSBIT P605 TOSTU T726 LBU |
| Aircraft | A320/M-SDE3FGHIRWY/LB1 |
Departure
| Time | 2026-05-07 19:46 |
|---|---|
| Airport | Hamburg Helmut Schmidt Airport (EDDH) |
Arrival
| Time | 2026-05-07 20:40 |
|---|---|
| Airport | Stuttgart Airport (EDDS) |
| Time | Latitude | Longitude | Altitude | Speed | Heading |
|---|---|---|---|---|---|
| 2026-05-07 19:15 | 53.62808 | 10.00245 | 51 ft | 0 kts | 62° |
| 2026-05-07 19:39 | 53.62804 | 10.00234 | 49 ft | 3 kts | 63° |
| 2026-05-07 19:39 | 53.62793 | 10.00198 | 45 ft | 3 kts | 58° |
| 2026-05-07 19:40 | 53.62779 | 10.00167 | 45 ft | 3 kts | 39° |
| 2026-05-07 19:40 | 53.62761 | 10.00150 | 49 ft | 3 kts | 355° |
| 2026-05-07 19:40 | 53.62751 | 10.00153 | 49 ft | 0 kts | 333° |
| 2026-05-07 19:43 | 53.62764 | 10.00141 | 47 ft | 5 kts | 332° |
| 2026-05-07 19:43 | 53.62790 | 10.00119 | 50 ft | 2 kts | 332° |
| 2026-05-07 19:43 | 53.62800 | 10.00110 | 50 ft | 3 kts | 332° |
| 2026-05-07 19:43 | 53.62833 | 10.00081 | 50 ft | 8 kts | 332° |
| 2026-05-07 19:44 | 53.62849 | 9.99975 | 48 ft | 13 kts | 245° |
| 2026-05-07 19:44 | 53.62805 | 9.99829 | 46 ft | 14 kts | 244° |
| 2026-05-07 19:44 | 53.62833 | 9.99772 | 49 ft | 5 kts | 333° |
| 2026-05-07 19:44 | 53.62840 | 9.99766 | 49 ft | 0 kts | 333° |
| 2026-05-07 19:45 | 53.62857 | 9.99751 | 48 ft | 17 kts | 333° |
| 2026-05-07 19:45 | 53.63209 | 9.99451 | 50 ft | 92 kts | 333° |
| 2026-05-07 19:46 | 53.63956 | 9.98810 | 49 ft | 147 kts | 333° |
| 2026-05-07 19:46 | 53.64914 | 9.97993 | 512 ft | 153 kts | 336° |
| 2026-05-07 19:46 | 53.65869 | 9.97169 | 1092 ft | 156 kts | 338° |
| 2026-05-07 19:46 | 53.66863 | 9.96320 | 1535 ft | 169 kts | 337° |
| 2026-05-07 19:47 | 53.67982 | 9.95371 | 1832 ft | 191 kts | 337° |
| 2026-05-07 19:47 | 53.69240 | 9.94302 | 2102 ft | 214 kts | 336° |
| 2026-05-07 19:47 | 53.70542 | 9.93049 | 2734 ft | 224 kts | 320° |
| 2026-05-07 19:47 | 53.71368 | 9.90822 | 3459 ft | 231 kts | 282° |
| 2026-05-07 19:48 | 53.71293 | 9.88029 | 3839 ft | 252 kts | 252° |
| 2026-05-07 19:48 | 53.70732 | 9.85104 | 4390 ft | 269 kts | 250° |
| 2026-05-07 19:48 | 53.70105 | 9.82079 | 4884 ft | 274 kts | 249° |
| 2026-05-07 19:48 | 53.69468 | 9.79033 | 5294 ft | 277 kts | 250° |
| 2026-05-07 19:49 | 53.68839 | 9.75976 | 6257 ft | 278 kts | 251° |
| 2026-05-07 19:49 | 53.68212 | 9.72877 | 7102 ft | 281 kts | 252° |
| 2026-05-07 19:49 | 53.67586 | 9.69736 | 7950 ft | 284 kts | 252° |
| 2026-05-07 19:49 | 53.66963 | 9.66597 | 8766 ft | 288 kts | 251° |
| 2026-05-07 19:50 | 53.66303 | 9.63400 | 9621 ft | 290 kts | 246° |
| 2026-05-07 19:50 | 53.65234 | 9.60496 | 10015 ft | 293 kts | 227° |
| 2026-05-07 19:50 | 53.63654 | 9.58379 | 10129 ft | 294 kts | 207° |
| 2026-05-07 19:50 | 53.61656 | 9.57232 | 10339 ft | 317 kts | 188° |
| 2026-05-07 19:51 | 53.59412 | 9.56796 | 10812 ft | 329 kts | 186° |
| 2026-05-07 19:51 | 53.57126 | 9.56361 | 11516 ft | 334 kts | 186° |
| 2026-05-07 19:51 | 53.54805 | 9.55904 | 12248 ft | 337 kts | 187° |
| 2026-05-07 19:51 | 53.52464 | 9.55433 | 12984 ft | 341 kts | 187° |
| 2026-05-07 19:52 | 53.50099 | 9.54960 | 13718 ft | 344 kts | 187° |
| 2026-05-07 19:52 | 53.47708 | 9.54487 | 14363 ft | 348 kts | 187° |
| 2026-05-07 19:52 | 53.45293 | 9.54012 | 14999 ft | 351 kts | 187° |
| 2026-05-07 19:52 | 53.42891 | 9.53540 | 15601 ft | 354 kts | 187° |
| 2026-05-07 19:53 | 53.40404 | 9.53048 | 16239 ft | 356 kts | 187° |
| 2026-05-07 19:53 | 53.37930 | 9.52561 | 16860 ft | 360 kts | 187° |
| 2026-05-07 19:53 | 53.35465 | 9.52078 | 17462 ft | 363 kts | 187° |
| 2026-05-07 19:53 | 53.32949 | 9.51582 | 18084 ft | 366 kts | 187° |
| 2026-05-07 19:54 | 53.30409 | 9.51079 | 18659 ft | 369 kts | 187° |
| 2026-05-07 19:54 | 53.27853 | 9.50572 | 19198 ft | 372 kts | 187° |
| 2026-05-07 19:54 | 53.25265 | 9.50065 | 19732 ft | 375 kts | 187° |
| 2026-05-07 19:54 | 53.22668 | 9.49564 | 20269 ft | 378 kts | 187° |
| 2026-05-07 19:55 | 53.20047 | 9.49058 | 20809 ft | 380 kts | 187° |
| 2026-05-07 19:55 | 53.17410 | 9.48543 | 21344 ft | 383 kts | 187° |
| 2026-05-07 19:55 | 53.14751 | 9.48023 | 21870 ft | 386 kts | 188° |
| 2026-05-07 19:55 | 53.12065 | 9.47501 | 22399 ft | 389 kts | 188° |
| 2026-05-07 19:56 | 53.09404 | 9.46988 | 22918 ft | 392 kts | 188° |
| 2026-05-07 19:56 | 53.06680 | 9.46463 | 23430 ft | 395 kts | 188° |
| 2026-05-07 19:56 | 53.03938 | 9.45933 | 23889 ft | 398 kts | 188° |
| 2026-05-07 19:56 | 53.01188 | 9.45398 | 24304 ft | 400 kts | 188° |
| 2026-05-07 19:57 | 52.98411 | 9.44858 | 24709 ft | 403 kts | 188° |
| 2026-05-07 19:57 | 52.95620 | 9.44286 | 25108 ft | 405 kts | 188° |
| 2026-05-07 19:57 | 52.92815 | 9.43684 | 25501 ft | 407 kts | 188° |
| 2026-05-07 19:57 | 52.90000 | 9.43071 | 25884 ft | 409 kts | 188° |
| 2026-05-07 19:58 | 52.87170 | 9.42454 | 26247 ft | 412 kts | 188° |
| 2026-05-07 19:58 | 52.84320 | 9.41835 | 26617 ft | 414 kts | 188° |
| 2026-05-07 19:58 | 52.81455 | 9.41217 | 26981 ft | 416 kts | 188° |
| 2026-05-07 19:58 | 52.78613 | 9.40609 | 27332 ft | 418 kts | 188° |
| 2026-05-07 19:59 | 52.75717 | 9.39995 | 27679 ft | 421 kts | 188° |
| 2026-05-07 19:59 | 52.72803 | 9.39380 | 28027 ft | 423 kts | 188° |
| 2026-05-07 19:59 | 52.69878 | 9.38764 | 28370 ft | 425 kts | 188° |
| 2026-05-07 19:59 | 52.66944 | 9.38143 | 28701 ft | 427 kts | 188° |
| 2026-05-07 20:00 | 52.63977 | 9.37679 | 29030 ft | 430 kts | 182° |
| 2026-05-07 20:00 | 52.60980 | 9.37941 | 29340 ft | 433 kts | 173° |
| 2026-05-07 20:00 | 52.58016 | 9.38924 | 29645 ft | 435 kts | 168° |
| 2026-05-07 20:00 | 52.55060 | 9.40048 | 29952 ft | 437 kts | 168° |
| 2026-05-07 20:01 | 52.52088 | 9.41171 | 30241 ft | 439 kts | 168° |
| 2026-05-07 20:01 | 52.49102 | 9.42288 | 30478 ft | 441 kts | 168° |
| 2026-05-07 20:01 | 52.46098 | 9.43401 | 30716 ft | 443 kts | 168° |
| 2026-05-07 20:01 | 52.43125 | 9.44495 | 30953 ft | 445 kts | 168° |
| 2026-05-07 20:02 | 52.40103 | 9.45609 | 31182 ft | 446 kts | 168° |
| 2026-05-07 20:02 | 52.37075 | 9.46735 | 31398 ft | 448 kts | 168° |
| 2026-05-07 20:02 | 52.34034 | 9.47871 | 31709 ft | 447 kts | 168° |
| 2026-05-07 20:02 | 52.31010 | 9.49000 | 32024 ft | 446 kts | 168° |
| 2026-05-07 20:03 | 52.27980 | 9.50131 | 32335 ft | 446 kts | 168° |
| 2026-05-07 20:03 | 52.24961 | 9.51255 | 32642 ft | 445 kts | 168° |
| 2026-05-07 20:03 | 52.21940 | 9.52371 | 32948 ft | 445 kts | 168° |
| 2026-05-07 20:03 | 52.18922 | 9.53479 | 33256 ft | 444 kts | 168° |
| 2026-05-07 20:04 | 52.15911 | 9.54578 | 33568 ft | 444 kts | 168° |
| 2026-05-07 20:04 | 52.12942 | 9.55664 | 33863 ft | 443 kts | 168° |
| 2026-05-07 20:04 | 52.09935 | 9.56768 | 34141 ft | 443 kts | 168° |
| 2026-05-07 20:04 | 52.06928 | 9.57873 | 34381 ft | 443 kts | 168° |
| 2026-05-07 20:05 | 52.03921 | 9.58977 | 34613 ft | 443 kts | 168° |
| 2026-05-07 20:05 | 52.00915 | 9.60078 | 34837 ft | 443 kts | 168° |
| 2026-05-07 20:05 | 51.97904 | 9.61178 | 35036 ft | 444 kts | 168° |
| 2026-05-07 20:05 | 51.94900 | 9.62271 | 35108 ft | 440 kts | 168° |
| 2026-05-07 20:06 | 51.88960 | 9.64429 | 35117 ft | 436 kts | 168° |
| 2026-05-07 20:06 | 51.83051 | 9.66578 | 35117 ft | 436 kts | 168° |
| 2026-05-07 20:07 | 51.77173 | 9.68714 | 35117 ft | 436 kts | 168° |
| 2026-05-07 20:07 | 51.71260 | 9.70852 | 35121 ft | 436 kts | 168° |
| 2026-05-07 20:08 | 51.65314 | 9.72684 | 35107 ft | 434 kts | 180° |
| 2026-05-07 20:08 | 51.59319 | 9.71963 | 35095 ft | 432 kts | 187° |
| 2026-05-07 20:09 | 51.53373 | 9.71018 | 35097 ft | 433 kts | 187° |
| 2026-05-07 20:10 | 51.44372 | 9.69574 | 35098 ft | 434 kts | 187° |
| 2026-05-07 20:10 | 51.38362 | 9.68622 | 35095 ft | 434 kts | 187° |
| 2026-05-07 20:11 | 51.32361 | 9.67686 | 35099 ft | 434 kts | 187° |
| 2026-05-07 20:11 | 51.26385 | 9.66754 | 35101 ft | 434 kts | 187° |
| 2026-05-07 20:12 | 51.20377 | 9.65826 | 35098 ft | 434 kts | 186° |
| 2026-05-07 20:12 | 51.14349 | 9.64981 | 35094 ft | 434 kts | 186° |
| 2026-05-07 20:13 | 51.08331 | 9.64150 | 35096 ft | 434 kts | 187° |
| 2026-05-07 20:13 | 51.02309 | 9.63310 | 35097 ft | 434 kts | 187° |
| 2026-05-07 20:14 | 50.96335 | 9.62482 | 35095 ft | 434 kts | 186° |
| 2026-05-07 20:14 | 50.90311 | 9.61651 | 35092 ft | 434 kts | 187° |
| 2026-05-07 20:15 | 50.84298 | 9.60816 | 35093 ft | 434 kts | 187° |
| 2026-05-07 20:15 | 50.78279 | 9.59972 | 35098 ft | 434 kts | 187° |
| 2026-05-07 20:16 | 50.72275 | 9.59578 | 34944 ft | 436 kts | 176° |
| 2026-05-07 20:16 | 50.69264 | 9.60006 | 34704 ft | 434 kts | 176° |
| 2026-05-07 20:16 | 50.66279 | 9.60459 | 34286 ft | 429 kts | 176° |
| 2026-05-07 20:16 | 50.63312 | 9.60925 | 33795 ft | 426 kts | 176° |
| 2026-05-07 20:17 | 50.60386 | 9.61386 | 33282 ft | 422 kts | 176° |
| 2026-05-07 20:17 | 50.57480 | 9.61839 | 33073 ft | 420 kts | 176° |
| 2026-05-07 20:17 | 50.54569 | 9.62286 | 33105 ft | 420 kts | 176° |
| 2026-05-07 20:18 | 50.48775 | 9.63163 | 33102 ft | 421 kts | 176° |
| 2026-05-07 20:18 | 50.42940 | 9.64027 | 33098 ft | 422 kts | 176° |
| 2026-05-07 20:19 | 50.37105 | 9.64898 | 33101 ft | 422 kts | 176° |
| 2026-05-07 20:19 | 50.31264 | 9.65764 | 33101 ft | 422 kts | 176° |
| 2026-05-07 20:20 | 50.25416 | 9.66574 | 33094 ft | 422 kts | 177° |
| 2026-05-07 20:20 | 50.19568 | 9.67380 | 33090 ft | 422 kts | 176° |
| 2026-05-07 20:21 | 50.13717 | 9.68205 | 33088 ft | 421 kts | 176° |
| 2026-05-07 20:21 | 50.07918 | 9.69023 | 33090 ft | 422 kts | 177° |
| 2026-05-07 20:22 | 50.02077 | 9.69840 | 33087 ft | 422 kts | 177° |
| 2026-05-07 20:22 | 49.96232 | 9.70652 | 33087 ft | 422 kts | 177° |
| 2026-05-07 20:22 | 49.93305 | 9.71060 | 32783 ft | 420 kts | 177° |
| 2026-05-07 20:23 | 49.90411 | 9.71465 | 32191 ft | 419 kts | 177° |
| 2026-05-07 20:23 | 49.87507 | 9.71870 | 31543 ft | 419 kts | 177° |
| 2026-05-07 20:23 | 49.84598 | 9.72274 | 30915 ft | 420 kts | 177° |
| 2026-05-07 20:23 | 49.81685 | 9.72679 | 30287 ft | 420 kts | 176° |
| 2026-05-07 20:24 | 49.78781 | 9.73081 | 29590 ft | 420 kts | 176° |
| 2026-05-07 20:24 | 49.75863 | 9.73483 | 28867 ft | 420 kts | 177° |
| 2026-05-07 20:24 | 49.72951 | 9.73885 | 28173 ft | 420 kts | 177° |
| 2026-05-07 20:24 | 49.70044 | 9.74284 | 27497 ft | 419 kts | 177° |
| 2026-05-07 20:25 | 49.67183 | 9.74675 | 26841 ft | 418 kts | 177° |
| 2026-05-07 20:25 | 49.64288 | 9.75070 | 26198 ft | 417 kts | 176° |
| 2026-05-07 20:25 | 49.61409 | 9.75462 | 25569 ft | 416 kts | 176° |
| 2026-05-07 20:25 | 49.58526 | 9.75855 | 24949 ft | 414 kts | 176° |
| 2026-05-07 20:26 | 49.55661 | 9.76248 | 24334 ft | 413 kts | 176° |
| 2026-05-07 20:26 | 49.52810 | 9.76639 | 23748 ft | 411 kts | 177° |
| 2026-05-07 20:26 | 49.49960 | 9.77034 | 23067 ft | 410 kts | 176° |
| 2026-05-07 20:26 | 49.47117 | 9.77428 | 22387 ft | 409 kts | 177° |
| 2026-05-07 20:27 | 49.44289 | 9.77819 | 21717 ft | 408 kts | 177° |
| 2026-05-07 20:27 | 49.41462 | 9.78208 | 21063 ft | 408 kts | 177° |
| 2026-05-07 20:27 | 49.38641 | 9.78590 | 20426 ft | 407 kts | 177° |
| 2026-05-07 20:27 | 49.35821 | 9.78968 | 19800 ft | 406 kts | 177° |
| 2026-05-07 20:28 | 49.33018 | 9.79341 | 19183 ft | 405 kts | 177° |
| 2026-05-07 20:28 | 49.30210 | 9.79715 | 18580 ft | 403 kts | 178° |
| 2026-05-07 20:28 | 49.27422 | 9.80091 | 17932 ft | 402 kts | 177° |
| 2026-05-07 20:28 | 49.24640 | 9.80474 | 17255 ft | 401 kts | 177° |
| 2026-05-07 20:29 | 49.21859 | 9.80858 | 16601 ft | 400 kts | 177° |
| 2026-05-07 20:29 | 49.19096 | 9.81234 | 15962 ft | 399 kts | 176° |
| 2026-05-07 20:29 | 49.17260 | 9.81481 | 15544 ft | 398 kts | 176° |
| 2026-05-07 20:29 | 49.13576 | 9.81969 | 14716 ft | 396 kts | 176° |
| 2026-05-07 20:30 | 49.11753 | 9.82209 | 14310 ft | 395 kts | 176° |
| 2026-05-07 20:30 | 49.09026 | 9.82569 | 13686 ft | 393 kts | 176° |
| 2026-05-07 20:30 | 49.06302 | 9.82934 | 13019 ft | 391 kts | 176° |
| 2026-05-07 20:30 | 49.02731 | 9.83416 | 12155 ft | 387 kts | 176° |
| 2026-05-07 20:31 | 49.00065 | 9.83778 | 11521 ft | 383 kts | 176° |
| 2026-05-07 20:31 | 48.98281 | 9.84019 | 11101 ft | 380 kts | 176° |
| 2026-05-07 20:31 | 48.95692 | 9.84365 | 10490 ft | 376 kts | 176° |
| 2026-05-07 20:31 | 48.93132 | 9.84706 | 10283 ft | 361 kts | 176° |
| 2026-05-07 20:32 | 48.90688 | 9.84932 | 10147 ft | 343 kts | 185° |
| 2026-05-07 20:32 | 48.88458 | 9.84072 | 10032 ft | 323 kts | 208° |
| 2026-05-07 20:32 | 48.86672 | 9.82181 | 9895 ft | 307 kts | 221° |
| 2026-05-07 20:32 | 48.84980 | 9.80287 | 9682 ft | 297 kts | 213° |
| 2026-05-07 20:33 | 48.83191 | 9.78627 | 8782 ft | 309 kts | 213° |
| 2026-05-07 20:33 | 48.81276 | 9.76837 | 7756 ft | 322 kts | 214° |
| 2026-05-07 20:33 | 48.79599 | 9.74652 | 6976 ft | 328 kts | 230° |
| 2026-05-07 20:33 | 48.78386 | 9.71810 | 6714 ft | 315 kts | 245° |
| 2026-05-07 20:34 | 48.77690 | 9.68805 | 6578 ft | 299 kts | 254° |
| 2026-05-07 20:34 | 48.77132 | 9.65769 | 6574 ft | 280 kts | 255° |
| 2026-05-07 20:34 | 48.76639 | 9.63079 | 6411 ft | 270 kts | 255° |
| 2026-05-07 20:34 | 48.76136 | 9.60360 | 6067 ft | 265 kts | 255° |
| 2026-05-07 20:35 | 48.75639 | 9.57685 | 5718 ft | 262 kts | 255° |
| 2026-05-07 20:35 | 48.75149 | 9.55049 | 5366 ft | 259 kts | 255° |
| 2026-05-07 20:35 | 48.74664 | 9.52444 | 5018 ft | 254 kts | 255° |
| 2026-05-07 20:35 | 48.74197 | 9.49937 | 4679 ft | 241 kts | 255° |
| 2026-05-07 20:36 | 48.73753 | 9.47555 | 4371 ft | 231 kts | 255° |
| 2026-05-07 20:36 | 48.73321 | 9.45246 | 4043 ft | 230 kts | 255° |
| 2026-05-07 20:36 | 48.72889 | 9.42931 | 3727 ft | 224 kts | 255° |
| 2026-05-07 20:36 | 48.72481 | 9.40754 | 3443 ft | 208 kts | 255° |
| 2026-05-07 20:37 | 48.72104 | 9.38746 | 3205 ft | 189 kts | 255° |
| 2026-05-07 20:37 | 48.71758 | 9.36901 | 2949 ft | 173 kts | 254° |
| 2026-05-07 20:37 | 48.71444 | 9.35231 | 2718 ft | 158 kts | 254° |
| 2026-05-07 20:37 | 48.71152 | 9.33678 | 2506 ft | 151 kts | 254° |
| 2026-05-07 20:38 | 48.70868 | 9.32166 | 2298 ft | 148 kts | 254° |
| 2026-05-07 20:38 | 48.70588 | 9.30679 | 2087 ft | 146 kts | 254° |
| 2026-05-07 20:38 | 48.70310 | 9.29202 | 1883 ft | 146 kts | 254° |
| 2026-05-07 20:38 | 48.70036 | 9.27749 | 1694 ft | 146 kts | 254° |
| 2026-05-07 20:39 | 48.69758 | 9.26276 | 1499 ft | 145 kts | 254° |
| 2026-05-07 20:39 | 48.69482 | 9.24817 | 1311 ft | 144 kts | 255° |
| 2026-05-07 20:39 | 48.69205 | 9.23397 | 1211 ft | 130 kts | 253° |
| 2026-05-07 20:39 | 48.68998 | 9.22265 | 1234 ft | 96 kts | 255° |
| 2026-05-07 20:40 | 48.68841 | 9.21406 | 1262 ft | 73 kts | 254° |
| 2026-05-07 20:40 | 48.68844 | 9.20950 | 1273 ft | 20 kts | 304° |
| 2026-05-07 20:40 | 48.68847 | 9.20936 | 1272 ft | 0 kts | 282° |
| 2026-05-07 20:40 | 48.68848 | 9.20934 | 1267 ft | 1 kts | 282° |
| 2026-05-07 20:41 | 48.68849 | 9.20922 | 1267 ft | 2 kts | 280° |
| 2026-05-07 20:41 | 48.68854 | 9.20875 | 1269 ft | 7 kts | 278° |
| 2026-05-07 20:41 | 48.68869 | 9.20778 | 1273 ft | 12 kts | 285° |
| 2026-05-07 20:41 | 48.68865 | 9.20635 | 1276 ft | 3 kts | 253° |
| 2026-05-07 20:42 | 48.68863 | 9.20624 | 1277 ft | 3 kts | 254° |
| 2026-05-07 20:43 | 48.68851 | 9.20559 | 1278 ft | 10 kts | 254° |
| 2026-05-07 20:43 | 48.68832 | 9.20453 | 1281 ft | 9 kts | 254° |
| 2026-05-07 20:43 | 48.68816 | 9.20373 | 1284 ft | 9 kts | 254° |
| 2026-05-07 20:43 | 48.68793 | 9.20251 | 1285 ft | 15 kts | 254° |
| 2026-05-07 20:44 | 48.68763 | 9.20088 | 1289 ft | 13 kts | 254° |
| 2026-05-07 20:44 | 48.68773 | 9.19984 | 1293 ft | 7 kts | 311° |
| 2026-05-07 20:44 | 48.68792 | 9.19953 | 1295 ft | 1 kts | 312° |
| 2026-05-07 20:44 | 48.68805 | 9.19932 | 1296 ft | 5 kts | 314° |
| 2026-05-07 20:45 | 48.68845 | 9.19893 | 1299 ft | 9 kts | 341° |
| 2026-05-07 20:45 | 48.68891 | 9.19840 | 1304 ft | 6 kts | 281° |
| 2026-05-07 20:45 | 48.68885 | 9.19793 | 1305 ft | 5 kts | 255° |
| 2026-05-07 20:45 | 48.68869 | 9.19708 | 1307 ft | 13 kts | 254° |
| 2026-05-07 20:46 | 48.68866 | 9.19612 | 1310 ft | 6 kts | 308° |
| 2026-05-07 20:46 | 48.68882 | 9.19600 | 1311 ft | 0 kts | 341° |
| 2026-05-07 20:46 | 48.68898 | 9.19593 | 1313 ft | 5 kts | 343° |
| 2026-05-07 20:46 | 48.68913 | 9.19586 | 1314 ft | 1 kts | 344° |
| 2026-05-07 20:47 | 48.68923 | 9.19581 | 1314 ft | 0 kts | 344° |
| 2026-05-07 20:47 | 48.68924 | 9.19581 | 1314 ft | 0 kts | 344° |